Time;durP1;ratioP1;P1;durP2;ratioP2;P2;SDS_P1;SDS_P2;PMS_P1;PMS_P2;Temp;Humidity;BMP_temperature;BMP_pressure;BME280_temperature;BME280_humidity;BME280_pressure;Samples;Min_cycle;Max_cycle;Signal;HPM_P1;HPM_P2
2023/09/17 00:01:19;;;;;;;1.92;1.92;;;;;;;19.68;97.57;97568.88;4964758;28;20061;-71
2023/09/17 00:03:46;;;;;;;1.98;1.98;;;;;;;19.71;97.32;97557.59;4966300;28;20508;-73
2023/09/17 00:06:12;;;;;;;1.80;1.80;;;;;;;19.69;97.82;97564.81;4966020;28;20156;-73
2023/09/17 00:08:39;;;;;;;1.80;1.80;;;;;;;19.70;97.84;97560.78;4965660;28;20132;-73
2023/09/17 00:11:07;;;;;;;1.80;1.80;;;;;;;19.61;97.98;97540.81;4965582;28;20059;-73
2023/09/17 00:13:34;;;;;;;1.85;1.85;;;;;;;19.72;97.54;97558.38;4965101;28;20588;-73
2023/09/17 00:16:01;;;;;;;1.95;1.95;;;;;;;19.79;97.24;97559.06;4964343;28;20538;-72
2023/09/17 00:18:28;;;;;;;1.67;1.67;;;;;;;19.51;95.93;97492.75;4964713;28;20142;-72
2023/09/17 00:20:54;;;;;;;1.70;1.70;;;;;;;19.68;96.51;97521.06;4964366;28;20059;-72
2023/09/17 00:23:21;;;;;;;2.00;2.00;;;;;;;19.84;97.01;97555.03;4965352;28;20051;-72
2023/09/17 00:25:48;;;;;;;1.80;1.80;;;;;;;19.73;96.74;97520.63;4963873;28;20433;-72
2023/09/17 00:28:14;;;;;;;1.88;1.88;;;;;;;19.71;96.69;97534.28;4950312;28;20058;-72
2023/09/17 00:30:41;;;;;;;1.88;1.88;;;;;;;19.62;95.98;97508.69;4965556;28;20050;-72
2023/09/17 00:33:08;;;;;;;1.90;1.90;;;;;;;19.79;96.37;97530.19;4964803;28;20066;-72
2023/09/17 00:35:35;;;;;;;1.90;1.90;;;;;;;19.88;95.90;97541.72;4963917;28;20050;-72
2023/09/17 00:38:03;;;;;;;1.90;1.90;;;;;;;19.68;95.54;97512.66;4965421;28;20057;-72
2023/09/17 00:40:31;;;;;;;1.80;1.80;;;;;;;18.84;95.65;97383.06;4965462;28;20470;-73
2023/09/17 00:42:58;;;;;;;1.70;1.70;;;;;;;19.66;97.30;97548.78;4964180;28;20061;-73
2023/09/17 00:45:25;;;;;;;1.70;1.70;;;;;;;19.46;97.82;97512.88;4964107;28;20051;-72
2023/09/17 00:47:52;;;;;;;1.80;1.80;;;;;;;19.48;96.51;97504.81;4965077;28;20414;-72
2023/09/17 00:50:19;;;;;;;1.70;1.70;;;;;;;19.42;97.23;97517.72;4965135;28;20497;-74
2023/09/17 00:52:46;;;;;;;1.77;1.77;;;;;;;19.23;98.79;97511.88;4964403;28;20058;-72
2023/09/17 00:55:13;;;;;;;1.80;1.80;;;;;;;19.33;97.56;97496.97;4963646;28;20047;-75
2023/09/17 00:57:45;;;;;;;1.90;1.90;;;;;;;19.58;97.27;97548.84;4964876;28;20047;-72
2023/09/17 01:00:12;;;;;;;1.90;1.90;;;;;;;19.47;97.73;97536.16;4963411;28;20125;-72
2023/09/17 01:02:40;;;;;;;1.75;1.75;;;;;;;18.89;97.44;97452.78;4963669;28;20504;-73
2023/09/17 01:05:08;;;;;;;2.00;2.00;;;;;;;19.29;98.89;97536.31;4964725;28;20051;-70
2023/09/17 01:07:35;;;;;;;1.70;1.70;;;;;;;18.49;99.46;97414.25;4965162;28;20050;-72
2023/09/17 01:10:04;;;;;;;1.70;1.70;;;;;;;19.24;99.69;97545.16;4965379;28;20078;-73
2023/09/17 01:12:31;;;;;;;2.00;2.00;;;;;;;18.78;100.00;97513.84;4964945;28;20055;-72
2023/09/17 01:14:58;;;;;;;1.55;1.55;;;;;;;18.34;100.00;97429.56;4964773;28;20137;-73
2023/09/17 01:17:27;;;;;;;1.80;1.80;;;;;;;18.50;100.00;97438.28;4964142;28;20458;-73
2023/09/17 01:19:55;;;;;;;1.80;1.80;;;;;;;19.00;100.00;97536.94;4965071;28;20513;-72
2023/09/17 01:22:29;;;;;;;2.00;2.00;;;;;;;18.92;100.00;97533.38;4965253;28;20055;-72
2023/09/17 01:25:18;;;;;;;1.75;1.75;;;;;;;18.64;100.00;97471.84;4963743;28;20061;-72
2023/09/17 01:27:45;;;;;;;1.73;1.73;;;;;;;19.18;100.00;97529.97;4965084;28;20149;-73
2023/09/17 01:30:15;;;;;;;1.80;1.80;;;;;;;19.20;100.00;97530.34;4965108;28;20054;-72
2023/09/17 01:32:43;;;;;;;1.63;1.63;;;;;;;18.86;100.00;97478.88;4964855;28;20054;-71
2023/09/17 01:35:17;;;;;;;1.90;1.90;;;;;;;19.17;99.74;97521.97;4963222;28;20489;-73
2023/09/17 01:37:50;;;;;;;;;;;;;;;19.03;100.00;97528.47;4963897;28;20043;-73
2023/09/17 01:40:17;;;;;;;1.67;1.67;;;;;;;18.78;100.00;97533.50;4964967;28;20391;-73
2023/09/17 01:42:46;;;;;;;1.75;1.75;;;;;;;17.95;100.00;97395.38;4965108;28;20050;-72
2023/09/17 01:45:14;;;;;;;1.80;1.80;;;;;;;18.50;100.00;97477.56;4965848;28;20047;-72
2023/09/17 01:47:42;;;;;;;1.60;1.60;;;;;;;18.87;100.00;97521.81;4968090;28;20070;-72
2023/09/17 01:50:11;;;;;;;1.70;1.70;;;;;;;18.97;100.00;97521.72;4981963;28;20113;-71
2023/09/17 01:52:39;;;;;;;1.77;1.77;;;;;;;18.54;100.00;97450.28;4987342;28;20581;-72
2023/09/17 01:55:10;;;;;;;1.77;1.77;;;;;;;18.84;100.00;97500.97;4987712;28;20050;-71
2023/09/17 01:57:37;;;;;;;1.70;1.70;;;;;;;18.56;100.00;97475.91;4987615;28;20851;-72
2023/09/17 02:00:19;;;;;;;1.55;1.55;;;;;;;18.58;100.00;97481.94;4986369;28;20080;-73
2023/09/17 02:02:51;;;;;;;1.50;1.50;;;;;;;18.77;100.00;97515.06;4986033;28;20061;-72
2023/09/17 02:05:20;;;;;;;1.77;1.77;;;;;;;18.87;100.00;97508.56;4987833;28;20050;-72
2023/09/17 02:07:47;;;;;;;1.80;1.80;;;;;;;18.19;100.00;97405.66;4987667;28;20138;-72
2023/09/17 02:10:14;;;;;;;1.70;1.70;;;;;;;18.91;100.00;97514.94;4987479;28;20046;-71
2023/09/17 02:12:41;;;;;;;1.80;1.80;;;;;;;18.88;100.00;97510.16;4985743;28;20513;-72
2023/09/17 02:15:11;;;;;;;1.70;1.70;;;;;;;18.77;100.00;97517.88;4987264;28;20089;-72
2023/09/17 02:17:38;;;;;;;1.52;1.52;;;;;;;18.74;100.00;97510.28;4985900;28;20066;-72
2023/09/17 02:20:10;;;;;;;1.70;1.70;;;;;;;18.63;100.00;97519.97;4987143;28;20082;-73
2023/09/17 02:22:38;;;;;;;1.70;1.70;;;;;;;18.54;100.00;97512.00;4976070;28;20160;-72
2023/09/17 02:25:06;;;;;;;1.65;1.65;;;;;;;18.31;100.00;97483.69;4986972;28;20085;-72
2023/09/17 02:27:34;;;;;;;1.60;1.60;;;;;;;18.61;100.00;97511.97;4987129;28;20065;-72
2023/09/17 02:30:02;;;;;;;1.63;1.63;;;;;;;18.56;100.00;97506.00;4986951;28;20062;-72
2023/09/17 02:32:29;;;;;;;1.58;1.58;;;;;;;18.55;100.00;97502.41;4986894;28;20057;-72
2023/09/17 02:34:56;;;;;;;1.60;1.60;;;;;;;18.53;100.00;97506.81;4986452;28;20137;-72
2023/09/17 02:37:23;;;;;;;1.63;1.63;;;;;;;18.43;100.00;97510.50;4985473;28;20921;-72
2023/09/17 02:39:50;;;;;;;1.58;1.58;;;;;;;18.36;100.00;97504.88;4987010;28;20060;-72
2023/09/17 02:42:17;;;;;;;1.58;1.58;;;;;;;18.32;100.00;97504.91;4987037;28;20054;-72
2023/09/17 02:44:44;;;;;;;1.60;1.60;;;;;;;17.56;100.00;97406.00;4987147;28;20046;-72
2023/09/17 02:47:11;;;;;;;1.63;1.63;;;;;;;18.44;100.00;97498.88;4986294;28;20477;-72
2023/09/17 02:49:37;;;;;;;1.60;1.60;;;;;;;18.42;100.00;97504.09;4986880;28;20086;-73
2023/09/17 02:52:06;;;;;;;1.50;1.50;;;;;;;18.36;100.00;97507.69;4985356;28;20521;-73
2023/09/17 02:54:36;;;;;;;1.60;1.60;;;;;;;18.40;100.00;97500.88;4986460;28;20058;-73
2023/09/17 02:57:03;;;;;;;1.50;1.50;;;;;;;17.02;100.00;97315.00;4987326;28;20407;-72
2023/09/17 02:59:30;;;;;;;1.73;1.73;;;;;;;18.09;100.00;97474.59;4986713;28;20440;-72
2023/09/17 03:01:56;;;;;;;1.50;1.50;;;;;;;18.19;100.00;97501.00;4986320;28;20054;-73
2023/09/17 03:04:26;;;;;;;1.73;1.73;;;;;;;18.29;100.00;97497.31;4986262;28;20529;-73
2023/09/17 03:06:53;;;;;;;1.42;1.42;;;;;;;18.25;100.00;97504.97;4984981;28;20150;-72
2023/09/17 03:09:20;;;;;;;1.58;1.58;;;;;;;16.97;100.00;97295.00;4984784;28;20062;-73
2023/09/17 03:11:47;;;;;;;1.65;1.65;;;;;;;17.66;100.00;97410.75;4985163;28;20046;-72
2023/09/17 03:14:13;;;;;;;1.70;1.70;;;;;;;17.79;100.00;97421.09;4985643;28;20149;-72
2023/09/17 03:16:40;;;;;;;1.45;1.45;;;;;;;18.23;100.00;97506.56;4985865;28;20051;-72
2023/09/17 03:19:07;;;;;;;1.40;1.40;;;;;;;11.38;100.00;96436.03;4984607;28;20054;-72
2023/09/17 03:21:38;;;;;;;1.50;1.50;;;;;;;18.18;100.00;97504.22;4984530;28;20634;-73
2023/09/17 03:24:05;;;;;;;1.58;1.58;;;;;;;18.04;100.00;97508.66;4985542;28;20046;-72
2023/09/17 03:26:32;;;;;;;1.67;1.67;;;;;;;17.32;100.00;97409.69;4984716;28;20149;-74
2023/09/17 03:28:58;;;;;;;1.77;1.77;;;;;;;18.08;100.00;97505.84;4985807;28;20528;-72
2023/09/17 03:31:26;;;;;;;1.55;1.55;;;;;;;18.07;100.00;97505.06;4985765;28;20046;-73
2023/09/17 03:33:52;;;;;;;1.55;1.55;;;;;;;18.02;100.00;97510.28;4985992;28;20165;-72
2023/09/17 03:36:19;;;;;;;1.50;1.50;;;;;;;17.71;100.00;97471.97;4985621;28;20089;-73
2023/09/17 03:38:46;;;;;;;1.70;1.70;;;;;;;17.80;100.00;97484.34;4984285;28;20046;-73
2023/09/17 03:41:12;;;;;;;1.85;1.85;;;;;;;17.86;100.00;97512.78;4984554;28;20171;-73
2023/09/17 03:43:39;;;;;;;1.50;1.50;;;;;;;17.73;100.00;97486.38;4985257;28;20046;-72
2023/09/17 03:46:06;;;;;;;1.80;1.80;;;;;;;17.40;100.00;97453.25;4983948;28;20074;-74
2023/09/17 03:48:32;;;;;;;1.60;1.60;;;;;;;17.81;100.00;97510.38;4985242;28;20065;-72
2023/09/17 03:51:00;;;;;;;1.60;1.60;;;;;;;17.79;100.00;97509.97;4966406;28;20054;-72
2023/09/17 03:53:30;;;;;;;1.85;1.85;;;;;;;17.79;100.00;97509.97;4966037;28;20140;-72
2023/09/17 03:55:56;;;;;;;1.40;1.40;;;;;;;17.78;100.00;97516.81;4964343;28;20090;-72
2023/09/17 03:58:24;;;;;;;1.63;1.63;;;;;;;17.18;100.00;97430.09;4964700;28;20054;-72
2023/09/17 04:00:50;;;;;;;1.60;1.60;;;;;;;17.72;100.00;97510.03;4966213;28;20058;-71
2023/09/17 04:03:19;;;;;;;1.90;1.90;;;;;;;17.68;100.00;97503.63;4966011;28;20077;-71
2023/09/17 04:05:48;;;;;;;1.80;1.80;;;;;;;17.63;100.00;97512.44;4964542;28;20158;-72
2023/09/17 04:08:15;;;;;;;1.80;1.80;;;;;;;17.70;100.00;97515.22;4965251;28;20058;-72
2023/09/17 04:10:43;;;;;;;1.60;1.60;;;;;;;17.65;100.00;97504.44;4965891;28;20077;-72
2023/09/17 04:13:09;;;;;;;1.70;1.70;;;;;;;17.65;100.00;97512.84;4965850;28;20134;-73
2023/09/17 04:15:36;;;;;;;1.60;1.60;;;;;;;17.28;100.00;97485.28;4965397;28;20065;-73
2023/09/17 04:18:05;;;;;;;1.70;1.70;;;;;;;16.28;100.00;97297.59;4965595;28;20082;-73
2023/09/17 04:20:32;;;;;;;1.60;1.60;;;;;;;17.53;100.00;97513.28;4964426;28;20074;-72
2023/09/17 04:22:58;;;;;;;1.65;1.65;;;;;;;17.29;100.00;97488.91;4965948;28;20060;-72
2023/09/17 04:25:25;;;;;;;1.50;1.50;;;;;;;17.54;100.00;97515.69;4965766;28;20057;-73
2023/09/17 04:27:53;;;;;;;1.60;1.60;;;;;;;17.58;100.00;97498.84;4965910;28;20054;-73
2023/09/17 04:30:19;;;;;;;1.88;1.88;;;;;;;17.78;100.00;97514.78;4965001;28;20046;-73
2023/09/17 04:32:50;;;;;;;1.67;1.67;;;;;;;17.83;100.00;97522.00;4965127;28;20502;-72
2023/09/17 04:35:17;;;;;;;1.65;1.65;;;;;;;17.85;100.00;97525.16;4965286;28;20066;-72
2023/09/17 04:37:47;;;;;;;1.60;1.60;;;;;;;17.98;100.00;97524.31;4965277;28;20055;-72
2023/09/17 04:40:14;;;;;;;1.70;1.70;;;;;;;17.97;100.00;97528.31;4965488;28;20062;-72
2023/09/17 04:42:43;;;;;;;1.55;1.55;;;;;;;18.01;100.00;97511.50;4965107;28;20567;-72
2023/09/17 04:45:11;;;;;;;1.35;1.35;;;;;;;17.36;100.00;97425.25;4964968;28;20417;-73
2023/09/17 04:47:38;;;;;;;1.70;1.70;;;;;;;18.16;99.96;97524.25;4964881;28;20145;-73
2023/09/17 04:50:09;;;;;;;1.40;1.40;;;;;;;17.81;98.32;97465.53;4977290;28;20069;-73
2023/09/17 04:52:36;;;;;;;1.77;1.77;;;;;;;17.55;98.10;97438.00;4984488;28;20133;-72
2023/09/17 04:55:05;;;;;;;1.60;1.60;;;;;;;18.23;98.75;97532.59;4982803;28;20100;-73
2023/09/17 04:57:32;;;;;;;1.80;1.80;;;;;;;17.64;98.57;97446.81;4977104;28;20050;-73
2023/09/17 05:00:07;;;;;;;1.55;1.55;;;;;;;18.11;99.72;97541.50;4965351;28;20062;-71
2023/09/17 05:02:33;;;;;;;1.67;1.67;;;;;;;17.94;99.21;97500.31;4963815;28;20089;-73
2023/09/17 05:05:00;;;;;;;1.83;1.83;;;;;;;18.10;99.72;97539.88;4957493;28;20066;-73
2023/09/17 05:07:27;;;;;;;1.83;1.83;;;;;;;17.77;99.91;97487.97;4977183;28;20570;-73
2023/09/17 05:09:54;;;;;;;1.50;1.50;;;;;;;18.15;100.00;97545.06;4964773;28;20050;-73
2023/09/17 05:12:21;;;;;;;1.50;1.50;;;;;;;17.98;99.39;97506.69;4962882;28;21373;-75
2023/09/17 05:14:47;;;;;;;1.48;1.48;;;;;;;17.73;100.00;97447.16;4962754;28;20058;-73
2023/09/17 05:17:15;;;;;;;1.65;1.65;;;;;;;18.61;99.42;97547.66;4962635;28;20059;-72
2023/09/17 05:19:42;;;;;;;1.80;1.80;;;;;;;18.82;99.59;97539.91;4967499;28;20466;-74
2023/09/17 05:22:08;;;;;;;1.60;1.60;;;;;;;18.30;96.94;97468.06;4967968;28;20051;-73
2023/09/17 05:24:35;;;;;;;1.80;1.80;;;;;;;19.25;97.11;97540.34;4968193;28;20494;-73
2023/09/17 05:27:03;;;;;;;1.80;1.80;;;;;;;19.30;94.22;97537.91;4967068;28;20638;-73
2023/09/17 05:29:30;;;;;;;1.50;1.50;;;;;;;19.12;93.89;97503.53;4968641;28;20054;-74
2023/09/17 05:31:56;;;;;;;1.75;1.75;;;;;;;19.16;94.72;97532.38;4968702;28;20051;-73
2023/09/17 05:34:23;;;;;;;1.70;1.70;;;;;;;19.13;94.63;97513.56;4968203;28;20054;-73
2023/09/17 05:36:50;;;;;;;1.70;1.70;;;;;;;19.13;95.67;97541.66;4967927;28;20129;-72
2023/09/17 05:39:17;;;;;;;1.80;1.80;;;;;;;19.30;95.35;97532.28;4966872;28;20047;-72
2023/09/17 05:41:44;;;;;;;1.80;1.80;;;;;;;19.50;94.43;97541.75;4968307;28;20137;-72
2023/09/17 05:44:10;;;;;;;1.90;1.90;;;;;;;19.69;94.73;97537.53;4968155;28;20058;-72
2023/09/17 05:46:37;;;;;;;1.80;1.80;;;;;;;19.97;93.25;97537.19;4968260;28;20057;-73
2023/09/17 05:49:04;;;;;;;1.80;1.80;;;;;;;20.17;91.94;97537.41;4968047;28;20082;-74
2023/09/17 05:51:30;;;;;;;2.10;2.10;;;;;;;20.36;90.01;97536.75;4968059;28;20453;-72
2023/09/17 05:53:57;;;;;;;1.92;1.92;;;;;;;20.59;89.00;97540.44;4967783;28;20444;-74
2023/09/17 05:56:24;;;;;;;2.03;2.03;;;;;;;20.69;89.14;97538.69;4968224;28;20505;-73
2023/09/17 05:58:50;;;;;;;2.00;2.00;;;;;;;20.80;88.98;97536.50;4968404;28;20051;-73
2023/09/17 06:01:17;;;;;;;2.13;2.13;;;;;;;20.99;87.89;97552.72;4967025;28;20047;-74
2023/09/17 06:03:44;;;;;;;1.98;1.98;;;;;;;21.31;87.43;97536.06;4967907;28;20120;-73
2023/09/17 06:06:11;;;;;;;2.20;2.20;;;;;;;21.49;85.70;97536.56;4968077;28;20058;-73
2023/09/17 06:08:38;;;;;;;2.20;2.20;;;;;;;21.77;83.43;97533.25;4968115;28;20137;-72
2023/09/17 06:11:05;;;;;;;2.38;2.30;;;;;;;21.57;82.86;97507.03;4982789;28;20418;-73
2023/09/17 06:13:32;;;;;;;2.22;2.22;;;;;;;22.02;81.06;97536.38;4966214;28;20050;-72
2023/09/17 06:15:58;;;;;;;2.35;2.33;;;;;;;22.32;78.97;97555.09;4966002;28;20059;-73
2023/09/17 06:18:28;;;;;;;2.60;2.50;;;;;;;22.48;76.54;97545.91;4967847;28;20050;-72
2023/09/17 06:20:56;;;;;;;2.60;2.50;;;;;;;22.72;75.64;97542.56;4967806;28;20101;-72
2023/09/17 06:23:23;;;;;;;2.58;2.47;;;;;;;22.13;76.14;97513.59;4967670;28;20571;-72
2023/09/17 06:25:49;;;;;;;2.92;2.83;;;;;;;22.42;76.74;97549.25;4967234;28;20046;-72
2023/09/17 06:28:17;;;;;;;2.80;2.70;;;;;;;22.53;76.75;97548.25;4967650;28;20054;-72
2023/09/17 06:30:44;;;;;;;2.55;2.45;;;;;;;21.97;75.66;97424.00;4967108;28;20509;-72
2023/09/17 06:33:11;;;;;;;2.55;2.45;;;;;;;22.59;76.36;97546.50;4967729;28;20137;-72
2023/09/17 06:35:38;;;;;;;2.47;2.38;;;;;;;22.44;76.61;97546.78;4967493;28;20051;-73
2023/09/17 06:38:05;;;;;;;2.50;2.40;;;;;;;22.65;75.78;97553.22;4967308;28;20062;-73
2023/09/17 06:40:31;;;;;;;2.78;2.67;;;;;;;22.73;75.06;97540.53;4967007;28;20059;-70
2023/09/17 06:42:59;;;;;;;3.08;2.97;;;;;;;23.02;74.73;97547.91;4967284;28;20081;-72
2023/09/17 06:45:25;;;;;;;2.70;2.60;;;;;;;23.03;73.68;97548.72;4965846;28;20051;-73
2023/09/17 06:47:52;;;;;;;2.60;2.50;;;;;;;22.82;74.83;97549.19;4966936;28;20069;-72
2023/09/17 06:50:19;;;;;;;2.83;2.72;;;;;;;22.88;74.77;97558.75;4976743;28;20422;-72
2023/09/17 06:52:46;;;;;;;2.80;2.70;;;;;;;23.19;73.89;97557.22;4986378;28;20078;-75
2023/09/17 06:55:12;;;;;;;3.00;2.90;;;;;;;23.01;73.38;97535.03;4985954;28;20360;-74
2023/09/17 06:57:39;;;;;;;3.03;2.92;;;;;;;22.74;72.61;97486.44;4985006;28;20076;-72
2023/09/17 07:00:07;;;;;;;2.90;2.80;;;;;;;22.69;73.62;97553.94;4986675;28;20495;-73
2023/09/17 07:02:33;;;;;;;2.80;2.70;;;;;;;22.82;73.78;97566.16;4986269;28;20456;-72
2023/09/17 07:05:03;;;;;;;2.75;2.65;;;;;;;22.57;75.39;97554.63;4986309;28;20541;-72
2023/09/17 07:07:30;;;;;;;2.95;2.85;;;;;;;22.80;74.39;97546.81;4986641;28;20058;-72
2023/09/17 07:09:57;;;;;;;2.80;2.70;;;;;;;22.98;73.94;97552.88;4984734;28;20526;-72
2023/09/17 07:12:24;;;;;;;3.10;3.00;;;;;;;23.38;73.02;97554.31;4986140;28;20058;-73
2023/09/17 07:14:50;;;;;;;2.55;2.45;;;;;;;23.68;70.15;97551.09;4986215;28;20179;-71
2023/09/17 07:17:17;;;;;;;3.10;3.00;;;;;;;23.55;70.55;97552.28;4986109;28;20050;-73
2023/09/17 07:19:44;;;;;;;3.05;2.95;;;;;;;23.35;70.52;97552.38;4984228;28;20496;-72
2023/09/17 07:22:14;;;;;;;2.85;2.75;;;;;;;23.69;68.77;97558.38;4984722;28;20050;-72
2023/09/17 07:24:42;;;;;;;2.95;2.85;;;;;;;23.68;68.49;97534.13;4984462;28;20129;-71
2023/09/17 07:27:08;;;;;;;2.78;2.67;;;;;;;23.73;68.16;97558.25;4984528;28;20161;-72
2023/09/17 07:29:35;;;;;;;2.75;2.65;;;;;;;23.53;67.73;97481.19;4985752;28;20125;-76
2023/09/17 07:32:03;;;;;;;3.08;2.97;;;;;;;24.07;67.93;97544.41;4986164;28;20050;-72
2023/09/17 07:34:31;;;;;;;3.03;2.92;;;;;;;23.41;66.22;97465.75;4984311;28;20050;-75
2023/09/17 07:36:59;;;;;;;3.15;3.05;;;;;;;23.83;65.15;97484.41;4984448;28;20140;-74
2023/09/17 07:39:26;;;;;;;3.05;2.95;;;;;;;24.23;64.32;97541.53;4985543;28;20462;-73
2023/09/17 07:41:53;;;;;;;3.53;3.42;;;;;;;24.65;64.80;97551.59;4985667;28;20140;-72
2023/09/17 07:44:20;;;;;;;3.30;3.20;;;;;;;24.68;63.18;97562.03;4984106;28;20054;-75
2023/09/17 07:46:47;;;;;;;3.20;3.10;;;;;;;24.73;62.81;97557.84;4983828;28;20563;-74
2023/09/17 07:49:14;;;;;;;3.25;3.15;;;;;;;24.66;63.78;97519.19;4985246;28;20680;-74
2023/09/17 07:51:41;;;;;;;3.35;3.25;;;;;;;24.91;62.18;97541.09;4985529;28;20166;-74
2023/09/17 07:54:08;;;;;;;3.45;3.35;;;;;;;25.06;60.21;97531.69;4985238;28;20069;-74
2023/09/17 07:56:35;;;;;;;3.10;3.00;;;;;;;25.09;61.47;97553.47;4985429;28;20065;-74
2023/09/17 07:59:02;;;;;;;3.33;3.22;;;;;;;25.14;60.89;97555.72;4985462;28;20062;-74
2023/09/17 08:01:29;;;;;;;3.38;3.28;;;;;;;24.74;60.60;97495.06;4985011;28;20057;-73
2023/09/17 08:03:56;;;;;;;3.17;3.08;;;;;;;24.97;59.49;97556.28;4983847;28;20440;-73
2023/09/17 08:06:26;;;;;;;3.50;3.40;;;;;;;25.12;59.20;97552.53;4985712;28;20057;-75
2023/09/17 08:08:53;;;;;;;3.47;3.38;;;;;;;25.26;58.72;97540.75;4983779;28;20050;-74
2023/09/17 08:11:21;;;;;;;3.42;3.33;;;;;;;25.34;57.92;97537.72;4983733;28;20058;-74
2023/09/17 08:13:48;;;;;;;3.30;3.20;;;;;;;23.72;60.23;97449.16;4985234;28;20059;-72
2023/09/17 08:16:15;;;;;;;3.40;3.30;;;;;;;24.12;60.97;97524.06;4984310;28;20124;-72
2023/09/17 08:18:42;;;;;;;3.13;3.03;;;;;;;24.88;58.68;97531.44;4985039;28;20092;-75
2023/09/17 08:21:08;;;;;;;3.30;3.20;;;;;;;24.97;57.85;97528.75;4984883;28;20047;-74
2023/09/17 08:23:35;;;;;;;3.28;3.17;;;;;;;25.21;57.21;97532.03;4983648;28;20050;-73
2023/09/17 08:26:04;;;;;;;3.22;3.13;;;;;;;25.35;55.99;97530.78;4985129;28;20528;-74
2023/09/17 08:28:31;;;;;;;3.60;3.50;;;;;;;25.14;56.35;97470.66;4983315;28;20066;-75
2023/09/17 08:30:58;;;;;;;3.35;3.25;;;;;;;25.08;55.66;97500.84;4983131;28;20050;-74
2023/09/17 08:33:24;;;;;;;3.80;3.70;;;;;;;25.40;55.73;97533.03;4983428;28;20094;-75
2023/09/17 08:35:51;;;;;;;3.20;3.10;;;;;;;25.14;55.44;97493.34;4984565;28;20057;-75
2023/09/17 08:38:18;;;;;;;3.70;3.60;;;;;;;25.66;53.83;97532.53;4984810;28;20163;-73
2023/09/17 08:40:46;;;;;;;3.80;3.70;;;;;;;26.03;52.54;97533.69;4984427;28;20050;-73
2023/09/17 08:43:14;;;;;;;3.58;3.47;;;;;;;25.92;50.92;97527.56;4982960;28;20069;-74
2023/09/17 08:45:42;;;;;;;3.40;3.30;;;;;;;25.75;49.76;97520.47;4983225;28;20050;-73
2023/09/17 08:48:09;;;;;;;3.40;3.30;;;;;;;25.45;50.61;97467.22;4982611;28;20149;-74
2023/09/17 08:50:37;;;;;;;3.40;3.30;;;;;;;25.84;50.59;97507.16;4984315;28;20061;-74
2023/09/17 08:53:07;;;;;;;3.38;3.28;;;;;;;25.93;51.52;97520.63;4984050;28;20138;-73
2023/09/17 08:55:34;;;;;;;3.83;3.72;;;;;;;25.90;51.32;97519.50;4983998;28;20117;-74
2023/09/17 08:58:25;;;;;;;3.55;3.45;;;;;;;25.94;51.46;97525.06;4983953;28;20051;-73
2023/09/17 09:00:58;;;;;;;3.45;3.35;;;;;;;25.81;52.07;97507.28;4982615;28;20560;-74
2023/09/17 09:03:27;;;;;;;3.33;3.22;;;;;;;24.99;51.91;97432.69;4982803;28;20069;-74
2023/09/17 09:05:57;;;;;;;3.70;3.60;;;;;;;25.29;52.68;97482.31;4983087;28;20058;-73
2023/09/17 09:08:24;;;;;;;3.30;3.20;;;;;;;24.96;51.84;97391.06;4983045;28;20054;-73
2023/09/17 09:10:51;;;;;;;3.90;3.80;;;;;;;26.15;51.33;97515.78;4982627;28;20098;-72
2023/09/17 09:13:19;;;;;;;3.78;3.67;;;;;;;25.26;52.94;97506.69;4984367;28;20052;-74
2023/09/17 09:15:45;;;;;;;3.70;3.60;;;;;;;25.73;52.35;97505.94;4982541;28;20093;-73
2023/09/17 09:18:12;;;;;;;3.17;3.08;;;;;;;25.23;52.15;97422.53;4822583;28;5001821;-75
2023/09/17 09:20:40;;;;;;;3.85;3.75;;;;;;;26.03;51.68;97516.63;4982735;28;20086;-74
2023/09/17 09:23:07;;;;;;;3.60;3.50;;;;;;;25.86;50.86;97424.38;4984000;28;20571;-72
2023/09/17 09:25:34;;;;;;;4.10;4.00;;;;;;;26.51;50.85;97505.44;4984343;28;20109;-74
2023/09/17 09:28:01;;;;;;;3.83;3.72;;;;;;;26.84;50.31;97505.84;4984191;28;20132;-73
2023/09/17 09:30:29;;;;;;;4.20;4.10;;;;;;;27.10;49.86;97504.34;4984096;28;20068;-72
2023/09/17 09:32:57;;;;;;;4.05;3.95;;;;;;;27.16;49.34;97482.53;4958901;28;20050;-73
2023/09/17 09:35:25;;;;;;;3.95;3.85;;;;;;;27.38;48.48;97483.25;4983972;28;20118;-72
2023/09/17 09:37:53;;;;;;;3.70;3.60;;;;;;;27.28;48.31;97458.13;4982280;28;20705;-72
2023/09/17 09:40:21;;;;;;;4.20;4.10;;;;;;;27.59;48.02;97498.63;4984131;28;20050;-72
2023/09/17 09:42:48;;;;;;;4.28;4.18;;;;;;;27.60;47.53;97489.63;4983903;28;20116;-72
2023/09/17 09:45:16;;;;;;;3.78;3.67;;;;;;;27.68;47.89;97490.91;4983841;28;20489;-72
2023/09/17 09:47:50;;;;;;;4.13;4.03;;;;;;;27.67;48.11;97488.53;4971060;28;20054;-71
2023/09/17 09:50:35;;;;;;;4.15;4.05;;;;;;;27.63;48.04;97482.97;4963162;28;20053;-72
2023/09/17 09:53:01;;;;;;;4.32;4.22;;;;;;;27.83;47.26;97443.47;4964643;28;20498;-71
2023/09/17 09:55:28;;;;;;;4.20;4.10;;;;;;;27.93;47.20;97482.09;4962895;28;20121;-72
2023/09/17 09:57:55;;;;;;;4.40;4.30;;;;;;;28.49;46.64;97480.78;4964250;28;20146;-72
2023/09/17 10:00:26;;;;;;;4.28;4.18;;;;;;;28.60;46.23;97489.63;4964764;28;20090;-73
2023/09/17 10:02:54;;;;;;;4.40;4.30;;;;;;;28.01;45.41;97423.53;4964005;28;20559;-73
2023/09/17 10:05:34;;;;;;;4.00;3.90;;;;;;;27.89;45.43;97424.50;4965706;28;20086;-72
2023/09/17 10:08:04;;;;;;;4.40;4.30;;;;;;;28.15;45.54;97425.72;4966908;28;20051;-72
2023/09/17 10:10:31;;;;;;;4.13;4.03;;;;;;;27.52;44.83;97317.56;4968179;28;20492;-72
2023/09/17 10:13:01;;;;;;;4.60;4.50;;;;;;;28.02;44.69;97430.81;4967842;28;20912;-71
2023/09/17 10:15:27;;;;;;;4.28;4.18;;;;;;;28.02;45.00;97432.88;4966314;28;20053;-72
2023/09/17 10:17:57;;;;;;;3.90;3.80;;;;;;;27.94;45.37;97468.63;4967461;28;20065;-71
2023/09/17 10:20:24;;;;;;;4.15;4.05;;;;;;;27.79;45.31;97473.38;4967648;28;20059;-72
2023/09/17 10:22:55;;;;;;;4.35;4.25;;;;;;;27.99;45.37;97463.13;4967841;28;20410;-71
2023/09/17 10:25:23;;;;;;;3.85;3.75;;;;;;;28.26;45.12;97450.09;4966539;28;20446;-72
2023/09/17 10:27:51;;;;;;;3.97;3.88;;;;;;;28.39;44.61;97448.63;4966490;28;20070;-72
2023/09/17 10:30:18;;;;;;;4.32;4.22;;;;;;;27.86;45.33;97365.63;4967745;28;20050;-72
2023/09/17 10:32:47;;;;;;;3.92;3.83;;;;;;;28.29;45.23;97415.72;4967397;28;20065;-71
2023/09/17 10:35:14;;;;;;;4.30;4.20;;;;;;;28.43;45.67;97462.72;4965956;28;20055;-72
2023/09/17 10:37:43;;;;;;;4.18;4.07;;;;;;;28.57;45.30;97425.00;4967673;28;20604;-72
2023/09/17 10:40:10;;;;;;;4.88;4.78;;;;;;;29.04;44.45;97448.72;4965834;28;20326;-72
2023/09/17 10:42:40;;;;;;;4.28;4.18;;;;;;;27.69;46.19;97444.09;4966048;28;20514;-71
2023/09/17 10:45:10;;;;;;;4.13;4.03;;;;;;;27.70;47.25;97417.19;4967395;28;20062;-71
2023/09/17 10:47:39;;;;;;;4.22;4.13;;;;;;;27.99;46.22;97386.19;4967223;28;20510;-71
2023/09/17 10:50:08;;;;;;;3.92;3.83;;;;;;;28.30;45.53;97402.25;4973945;28;20064;-71
2023/09/17 10:52:36;;;;;;;4.18;4.07;;;;;;;27.87;45.51;97406.25;4986338;28;20101;-71
2023/09/17 10:55:07;;;;;;;4.25;4.15;;;;;;;28.08;45.24;97416.72;4986862;28;20135;-71
2023/09/17 10:57:40;;;;;;;3.80;3.70;;;;;;;27.77;46.14;97425.41;4985442;28;20062;-73
2023/09/17 11:00:17;;;;;;;4.28;4.18;;;;;;;28.38;44.69;97423.44;4986789;28;20058;-72
2023/09/17 11:02:51;;;;;;;4.00;3.90;;;;;;;28.31;45.42;97412.41;4985068;28;20065;-73
2023/09/17 11:05:22;;;;;;;4.15;4.05;;;;;;;28.59;44.25;97382.53;4986574;28;20069;-72
2023/09/17 11:07:52;;;;;;;4.47;4.38;;;;;;;28.52;44.36;97368.63;4986531;28;20055;-73
2023/09/17 11:10:20;;;;;;;4.18;4.07;;;;;;;28.47;45.01;97426.28;4986211;28;20051;-73
2023/09/17 11:12:58;;;;;;;3.78;3.67;;;;;;;28.13;44.50;97379.84;4986269;28;20521;-73
2023/09/17 11:15:25;;;;;;;4.32;4.22;;;;;;;27.99;44.78;97403.28;4986125;28;20419;-73
2023/09/17 11:17:58;;;;;;;3.90;3.80;;;;;;;26.55;47.24;97349.81;4984288;28;20093;-73
2023/09/17 11:20:25;;;;;;;4.13;4.03;;;;;;;27.71;46.27;97398.06;4986110;28;20246;-72
2023/09/17 11:22:51;;;;;;;4.28;4.18;;;;;;;27.13;47.23;97318.50;4986062;28;20091;-72
2023/09/17 11:25:33;;;;;;;4.00;3.90;;;;;;;27.14;46.02;97279.47;4984753;28;20058;-72
2023/09/17 11:28:11;;;;;;;3.92;3.83;;;;;;;27.98;46.47;97401.69;4986179;28;20128;-73
2023/09/17 11:30:57;;;;;;;4.35;4.25;;;;;;;27.73;46.58;97390.63;4977221;28;20058;-73
2023/09/17 11:33:26;;;;;;;4.00;3.90;;;;;;;27.79;46.15;97405.78;4985609;28;20133;-71
2023/09/17 11:35:58;;;;;;;3.70;3.60;;;;;;;26.97;47.47;97395.59;4974737;28;20050;-73